sensor_id;sensor_type;location;lat;lon;timestamp;pressure;altitude;pressure_sealevel;temperature;humidity
72636;BME280;60679;48.888;15.544;2023-07-09T00:01:17;96614.41;;;14.79;50.55
72636;BME280;60679;48.888;15.544;2023-07-09T00:03:47;96617.91;;;14.79;50.59
72636;BME280;60679;48.888;15.544;2023-07-09T00:06:17;96620.53;;;14.74;50.68
72636;BME280;60679;48.888;15.544;2023-07-09T00:08:44;96626.63;;;14.65;50.72
72636;BME280;60679;48.888;15.544;2023-07-09T00:11:12;96626.97;;;14.57;50.82
72636;BME280;60679;48.888;15.544;2023-07-09T00:13:37;96634.19;;;14.51;51.02
72636;BME280;60679;48.888;15.544;2023-07-09T00:16:11;96628.41;;;14.48;51.06
72636;BME280;60679;48.888;15.544;2023-07-09T00:18:37;96631.84;;;14.43;51.14
72636;BME280;60679;48.888;15.544;2023-07-09T00:21:03;96637.41;;;14.25;51.36
72636;BME280;60679;48.888;15.544;2023-07-09T00:23:28;96638.09;;;14.20;51.33
72636;BME280;60679;48.888;15.544;2023-07-09T00:25:55;96637.03;;;14.21;51.40
72636;BME280;60679;48.888;15.544;2023-07-09T00:28:20;96642.09;;;14.18;51.40
72636;BME280;60679;48.888;15.544;2023-07-09T00:30:47;96639.84;;;14.15;51.45
72636;BME280;60679;48.888;15.544;2023-07-09T00:33:15;96642.72;;;14.08;51.61
72636;BME280;60679;48.888;15.544;2023-07-09T00:35:50;96638.91;;;13.98;51.72
72636;BME280;60679;48.888;15.544;2023-07-09T00:38:19;96640.00;;;13.97;51.83
72636;BME280;60679;48.888;15.544;2023-07-09T00:41:05;96646.13;;;13.92;51.93
72636;BME280;60679;48.888;15.544;2023-07-09T00:43:35;96649.91;;;13.91;52.13
72636;BME280;60679;48.888;15.544;2023-07-09T00:49:02;96642.09;;;13.95;52.21
72636;BME280;60679;48.888;15.544;2023-07-09T00:51:31;96649.78;;;13.98;52.16
72636;BME280;60679;48.888;15.544;2023-07-09T00:54:01;96638.91;;;13.98;52.12
72636;BME280;60679;48.888;15.544;2023-07-09T00:56:40;96642.09;;;13.95;52.41
72636;BME280;60679;48.888;15.544;2023-07-09T00:59:11;96644.81;;;13.95;52.39
72636;BME280;60679;48.888;15.544;2023-07-09T01:01:39;96643.41;;;13.92;52.50
72636;BME280;60679;48.888;15.544;2023-07-09T01:04:08;96646.84;;;13.87;52.43
72636;BME280;60679;48.888;15.544;2023-07-09T01:06:37;96646.72;;;13.82;52.63
72636;BME280;60679;48.888;15.544;2023-07-09T01:09:06;96647.06;;;13.74;52.71
72636;BME280;60679;48.888;15.544;2023-07-09T01:11:32;96648.34;;;13.72;52.82
72636;BME280;60679;48.888;15.544;2023-07-09T01:14:01;96644.94;;;13.76;52.79
72636;BME280;60679;48.888;15.544;2023-07-09T01:16:29;96646.47;;;13.84;52.75
72636;BME280;60679;48.888;15.544;2023-07-09T01:18:55;96648.97;;;13.85;52.66
72636;BME280;60679;48.888;15.544;2023-07-09T01:21:21;96642.22;;;13.88;52.96
72636;BME280;60679;48.888;15.544;2023-07-09T01:23:49;96645.53;;;13.90;52.85
72636;BME280;60679;48.888;15.544;2023-07-09T01:26:18;96648.00;;;13.92;52.94
72636;BME280;60679;48.888;15.544;2023-07-09T01:28:44;96640.09;;;13.90;53.06
72636;BME280;60679;48.888;15.544;2023-07-09T01:31:11;96644.13;;;13.87;53.00
72636;BME280;60679;48.888;15.544;2023-07-09T01:33:38;96642.22;;;13.88;53.10
72636;BME280;60679;48.888;15.544;2023-07-09T01:36:09;96639.75;;;13.86;53.17
72636;BME280;60679;48.888;15.544;2023-07-09T01:38:35;96633.72;;;13.84;53.16
72636;BME280;60679;48.888;15.544;2023-07-09T01:41:01;96642.34;;;13.81;53.28
72636;BME280;60679;48.888;15.544;2023-07-09T01:43:27;96635.25;;;13.80;53.22
72636;BME280;60679;48.888;15.544;2023-07-09T01:45:53;96639.50;;;13.76;53.39
72636;BME280;60679;48.888;15.544;2023-07-09T01:48:23;96635.72;;;13.77;53.41
72636;BME280;60679;48.888;15.544;2023-07-09T01:50:50;96639.25;;;13.78;53.46
72636;BME280;60679;48.888;15.544;2023-07-09T01:53:19;96636.53;;;13.78;53.53
72636;BME280;60679;48.888;15.544;2023-07-09T01:55:51;96639.72;;;13.75;53.48
72636;BME280;60679;48.888;15.544;2023-07-09T01:58:17;96646.34;;;13.67;53.69
72636;BME280;60679;48.888;15.544;2023-07-09T02:00:43;96641.13;;;13.54;53.68
72636;BME280;60679;48.888;15.544;2023-07-09T02:03:10;96643.91;;;13.36;53.91
72636;BME280;60679;48.888;15.544;2023-07-09T02:05:35;96648.00;;;13.27;54.28
72636;BME280;60679;48.888;15.544;2023-07-09T02:08:02;96645.97;;;13.22;54.21
72636;BME280;60679;48.888;15.544;2023-07-09T02:10:27;96646.31;;;13.14;54.19
72636;BME280;60679;48.888;15.544;2023-07-09T02:12:53;96644.34;;;13.03;54.71
72636;BME280;60679;48.888;15.544;2023-07-09T02:15:18;96635.25;;;12.98;54.44
72636;BME280;60679;48.888;15.544;2023-07-09T02:17:44;96639.47;;;12.94;54.56
72636;BME280;60679;48.888;15.544;2023-07-09T02:20:10;96645.13;;;12.92;54.54
72636;BME280;60679;48.888;15.544;2023-07-09T02:22:37;96643.72;;;12.90;54.60
72636;BME280;60679;48.888;15.544;2023-07-09T02:25:04;96641.91;;;12.84;54.79
72636;BME280;60679;48.888;15.544;2023-07-09T02:27:31;96641.75;;;12.79;54.72
72636;BME280;60679;48.888;15.544;2023-07-09T02:29:57;96641.03;;;12.71;54.97
72636;BME280;60679;48.888;15.544;2023-07-09T02:32:25;96648.56;;;12.69;54.83
72636;BME280;60679;48.888;15.544;2023-07-09T02:34:52;96651.03;;;12.71;55.02
72636;BME280;60679;48.888;15.544;2023-07-09T02:37:24;96654.72;;;12.77;55.02
72636;BME280;60679;48.888;15.544;2023-07-09T02:39:51;96656.75;;;12.81;54.84
72636;BME280;60679;48.888;15.544;2023-07-09T02:42:18;96661.56;;;12.79;54.95
72636;BME280;60679;48.888;15.544;2023-07-09T02:44:44;96662.09;;;12.69;55.23
72636;BME280;60679;48.888;15.544;2023-07-09T02:47:11;96657.00;;;12.61;54.92
72636;BME280;60679;48.888;15.544;2023-07-09T02:49:37;96661.19;;;12.57;55.30
72636;BME280;60679;48.888;15.544;2023-07-09T02:52:03;96661.66;;;12.54;55.21
72636;BME280;60679;48.888;15.544;2023-07-09T02:54:29;96657.28;;;12.53;55.25
72636;BME280;60679;48.888;15.544;2023-07-09T02:56:54;96663.53;;;12.54;55.42
72636;BME280;60679;48.888;15.544;2023-07-09T02:59:20;96656.28;;;12.48;55.45
72636;BME280;60679;48.888;15.544;2023-07-09T03:01:46;96664.22;;;12.49;55.33
72636;BME280;60679;48.888;15.544;2023-07-09T03:04:13;96660.44;;;12.50;55.39
72636;BME280;60679;48.888;15.544;2023-07-09T03:06:39;96659.53;;;12.56;55.72
72636;BME280;60679;48.888;15.544;2023-07-09T03:09:05;96667.44;;;12.58;55.62
72636;BME280;60679;48.888;15.544;2023-07-09T03:11:32;96664.06;;;12.62;55.63
72636;BME280;60679;48.888;15.544;2023-07-09T03:13:59;96665.47;;;12.65;55.67
72636;BME280;60679;48.888;15.544;2023-07-09T03:16:33;96666.69;;;12.69;55.72
72636;BME280;60679;48.888;15.544;2023-07-09T03:18:59;96669.53;;;12.74;55.40
72636;BME280;60679;48.888;15.544;2023-07-09T03:21:26;96674.25;;;12.79;55.55
72636;BME280;60679;48.888;15.544;2023-07-09T03:23:53;96670.91;;;12.83;55.70
72636;BME280;60679;48.888;15.544;2023-07-09T03:26:19;96680.53;;;12.79;55.76
72636;BME280;60679;48.888;15.544;2023-07-09T03:28:44;96678.19;;;12.83;55.68
72636;BME280;60679;48.888;15.544;2023-07-09T03:31:10;96671.63;;;12.90;55.70
72636;BME280;60679;48.888;15.544;2023-07-09T03:33:35;96681.56;;;12.96;55.64
72636;BME280;60679;48.888;15.544;2023-07-09T03:36:01;96670.84;;;13.01;55.59
72636;BME280;60679;48.888;15.544;2023-07-09T03:38:26;96672.47;;;13.09;55.53
72636;BME280;60679;48.888;15.544;2023-07-09T03:40:53;96678.41;;;13.17;55.68
72636;BME280;60679;48.888;15.544;2023-07-09T03:43:19;96678.91;;;13.26;55.53
72636;BME280;60679;48.888;15.544;2023-07-09T03:45:45;96680.09;;;13.30;55.50
72636;BME280;60679;48.888;15.544;2023-07-09T03:48:11;96681.28;;;13.34;55.58
72636;BME280;60679;48.888;15.544;2023-07-09T03:50:37;96681.03;;;13.36;55.63
72636;BME280;60679;48.888;15.544;2023-07-09T03:53:03;96683.16;;;13.34;55.51
72636;BME280;60679;48.888;15.544;2023-07-09T03:55:28;96685.56;;;13.42;55.51
72636;BME280;60679;48.888;15.544;2023-07-09T03:57:55;96693.00;;;13.46;55.52
72636;BME280;60679;48.888;15.544;2023-07-09T04:00:20;96684.38;;;13.49;55.55
72636;BME280;60679;48.888;15.544;2023-07-09T04:02:46;96686.78;;;13.57;55.45
72636;BME280;60679;48.888;15.544;2023-07-09T04:05:12;96690.59;;;13.68;55.43
72636;BME280;60679;48.888;15.544;2023-07-09T04:07:37;96692.97;;;13.76;55.37
72636;BME280;60679;48.888;15.544;2023-07-09T04:10:04;96679.88;;;13.84;55.17
72636;BME280;60679;48.888;15.544;2023-07-09T04:12:29;96676.22;;;13.91;55.24
72636;BME280;60679;48.888;15.544;2023-07-09T04:14:55;96678.22;;;13.95;55.18
72636;BME280;60679;48.888;15.544;2023-07-09T04:17:20;96682.72;;;14.01;55.22
72636;BME280;60679;48.888;15.544;2023-07-09T04:19:48;96684.38;;;14.02;55.29
72636;BME280;60679;48.888;15.544;2023-07-09T04:22:13;96687.09;;;14.02;55.29
72636;BME280;60679;48.888;15.544;2023-07-09T04:24:39;96687.44;;;14.06;55.26
72636;BME280;60679;48.888;15.544;2023-07-09T04:27:04;96692.88;;;14.17;55.21
72636;BME280;60679;48.888;15.544;2023-07-09T04:29:30;96696.00;;;14.32;55.20
72636;BME280;60679;48.888;15.544;2023-07-09T04:31:59;96691.72;;;14.48;55.25
72636;BME280;60679;48.888;15.544;2023-07-09T04:34:24;96693.72;;;14.64;54.94
72636;BME280;60679;48.888;15.544;2023-07-09T04:36:49;96697.03;;;14.78;54.83
72636;BME280;60679;48.888;15.544;2023-07-09T04:39:15;96701.59;;;14.89;54.81
72636;BME280;60679;48.888;15.544;2023-07-09T04:41:40;96698.50;;;14.97;54.75
72636;BME280;60679;48.888;15.544;2023-07-09T04:44:05;96704.31;;;15.00;54.85
72636;BME280;60679;48.888;15.544;2023-07-09T04:46:31;96703.66;;;15.10;54.85
72636;BME280;60679;48.888;15.544;2023-07-09T04:48:56;96707.44;;;15.21;54.71
72636;BME280;60679;48.888;15.544;2023-07-09T04:51:22;96712.22;;;15.30;54.74
72636;BME280;60679;48.888;15.544;2023-07-09T04:53:47;96704.19;;;15.35;54.62
72636;BME280;60679;48.888;15.544;2023-07-09T04:56:17;96711.97;;;15.43;54.61
72636;BME280;60679;48.888;15.544;2023-07-09T04:58:42;96706.38;;;15.50;54.50
72636;BME280;60679;48.888;15.544;2023-07-09T05:01:08;96710.28;;;15.54;54.54
72636;BME280;60679;48.888;15.544;2023-07-09T05:03:33;96705.28;;;15.63;54.56
72636;BME280;60679;48.888;15.544;2023-07-09T05:05:58;96709.56;;;15.75;54.53
72636;BME280;60679;48.888;15.544;2023-07-09T05:08:24;96707.38;;;15.89;54.43
72636;BME280;60679;48.888;15.544;2023-07-09T05:10:51;96711.09;;;15.99;54.35
72636;BME280;60679;48.888;15.544;2023-07-09T05:13:18;96705.88;;;16.14;54.29
72636;BME280;60679;48.888;15.544;2023-07-09T05:15:46;96703.19;;;16.31;54.18
72636;BME280;60679;48.888;15.544;2023-07-09T05:18:13;96711.00;;;16.44;53.87
72636;BME280;60679;48.888;15.544;2023-07-09T05:20:39;96708.44;;;16.54;53.82
72636;BME280;60679;48.888;15.544;2023-07-09T05:23:05;96705.13;;;16.69;53.77
72636;BME280;60679;48.888;15.544;2023-07-09T05:25:30;96715.75;;;16.87;53.77
72636;BME280;60679;48.888;15.544;2023-07-09T05:27:56;96707.75;;;17.02;53.79
72636;BME280;60679;48.888;15.544;2023-07-09T05:30:21;96710.69;;;17.17;53.40
72636;BME280;60679;48.888;15.544;2023-07-09T05:32:47;96705.41;;;17.33;53.46
72636;BME280;60679;48.888;15.544;2023-07-09T05:35:13;96706.66;;;17.47;53.50
72636;BME280;60679;48.888;15.544;2023-07-09T05:37:39;96723.81;;;17.64;53.35
72636;BME280;60679;48.888;15.544;2023-07-09T05:40:06;96727.53;;;17.79;53.12
72636;BME280;60679;48.888;15.544;2023-07-09T05:42:32;96729.06;;;17.97;53.23
72636;BME280;60679;48.888;15.544;2023-07-09T05:44:58;96733.03;;;18.11;52.97
72636;BME280;60679;48.888;15.544;2023-07-09T05:47:24;96728.78;;;18.25;52.96
72636;BME280;60679;48.888;15.544;2023-07-09T05:49:49;96728.66;;;18.42;52.32
72636;BME280;60679;48.888;15.544;2023-07-09T05:52:21;96725.78;;;18.59;52.61
72636;BME280;60679;48.888;15.544;2023-07-09T05:54:49;96725.38;;;18.77;52.33
72636;BME280;60679;48.888;15.544;2023-07-09T05:57:15;96726.84;;;18.94;52.48
72636;BME280;60679;48.888;15.544;2023-07-09T05:59:40;96728.00;;;19.09;51.96
72636;BME280;60679;48.888;15.544;2023-07-09T06:02:11;96721.22;;;19.21;51.67
72636;BME280;60679;48.888;15.544;2023-07-09T06:04:38;96720.53;;;19.41;51.56
72636;BME280;60679;48.888;15.544;2023-07-09T06:07:04;96724.69;;;19.58;51.36
72636;BME280;60679;48.888;15.544;2023-07-09T06:09:30;96725.56;;;19.74;51.66
72636;BME280;60679;48.888;15.544;2023-07-09T06:11:57;96726.41;;;19.90;51.16
72636;BME280;60679;48.888;15.544;2023-07-09T06:14:22;96730.00;;;20.05;51.09
72636;BME280;60679;48.888;15.544;2023-07-09T06:16:47;96728.91;;;20.22;50.63
72636;BME280;60679;48.888;15.544;2023-07-09T06:19:13;96728.69;;;20.38;50.63
72636;BME280;60679;48.888;15.544;2023-07-09T06:21:39;96729.78;;;20.52;50.73
72636;BME280;60679;48.888;15.544;2023-07-09T06:24:06;96727.03;;;20.67;50.12
72636;BME280;60679;48.888;15.544;2023-07-09T06:26:31;96734.72;;;20.86;50.45
72636;BME280;60679;48.888;15.544;2023-07-09T06:28:57;96733.56;;;21.02;49.83
72636;BME280;60679;48.888;15.544;2023-07-09T06:31:22;96730.78;;;21.17;49.75
72636;BME280;60679;48.888;15.544;2023-07-09T06:33:49;96732.41;;;21.33;49.69
72636;BME280;60679;48.888;15.544;2023-07-09T06:36:17;96730.69;;;21.47;49.45
72636;BME280;60679;48.888;15.544;2023-07-09T06:38:43;96737.78;;;21.63;49.06
72636;BME280;60679;48.888;15.544;2023-07-09T06:41:08;96726.97;;;21.77;49.47
72636;BME280;60679;48.888;15.544;2023-07-09T06:43:34;96730.50;;;21.93;48.82
72636;BME280;60679;48.888;15.544;2023-07-09T06:46:00;96732.03;;;22.09;49.03
72636;BME280;60679;48.888;15.544;2023-07-09T06:48:28;96728.63;;;22.22;48.93
72636;BME280;60679;48.888;15.544;2023-07-09T06:50:55;96729.38;;;22.37;48.79
72636;BME280;60679;48.888;15.544;2023-07-09T06:53:21;96737.47;;;22.53;48.18
72636;BME280;60679;48.888;15.544;2023-07-09T06:55:47;96724.72;;;22.67;48.14
72636;BME280;60679;48.888;15.544;2023-07-09T06:58:18;96719.97;;;22.77;48.24
72636;BME280;60679;48.888;15.544;2023-07-09T07:00:45;96729.72;;;22.93;47.97
72636;BME280;60679;48.888;15.544;2023-07-09T07:03:11;96718.31;;;23.05;48.07
72636;BME280;60679;48.888;15.544;2023-07-09T07:05:37;96715.75;;;23.14;47.58
72636;BME280;60679;48.888;15.544;2023-07-09T07:08:03;96722.47;;;23.26;47.58
72636;BME280;60679;48.888;15.544;2023-07-09T07:10:29;96723.09;;;23.47;47.65
72636;BME280;60679;48.888;15.544;2023-07-09T07:12:55;96715.91;;;23.70;47.19
72636;BME280;60679;48.888;15.544;2023-07-09T07:15:21;96715.09;;;23.88;47.00
72636;BME280;60679;48.888;15.544;2023-07-09T07:17:47;96726.75;;;24.03;46.43
72636;BME280;60679;48.888;15.544;2023-07-09T07:20:13;96723.81;;;24.19;46.22
72636;BME280;60679;48.888;15.544;2023-07-09T07:22:39;96722.44;;;24.35;46.12
72636;BME280;60679;48.888;15.544;2023-07-09T07:25:06;96724.75;;;24.46;45.53
72636;BME280;60679;48.888;15.544;2023-07-09T07:27:32;96719.03;;;24.56;45.66
72636;BME280;60679;48.888;15.544;2023-07-09T07:29:57;96713.19;;;24.77;45.25
72636;BME280;60679;48.888;15.544;2023-07-09T07:32:23;96718.47;;;24.92;44.74
72636;BME280;60679;48.888;15.544;2023-07-09T07:34:49;96713.88;;;25.01;44.67
72636;BME280;60679;48.888;15.544;2023-07-09T07:37:18;96715.34;;;25.12;44.44
72636;BME280;60679;48.888;15.544;2023-07-09T07:39:46;96722.44;;;25.32;44.30
72636;BME280;60679;48.888;15.544;2023-07-09T07:42:12;96709.13;;;25.47;43.74
72636;BME280;60679;48.888;15.544;2023-07-09T07:44:38;96707.28;;;25.56;43.33
72636;BME280;60679;48.888;15.544;2023-07-09T07:47:04;96711.97;;;25.69;43.16
72636;BME280;60679;48.888;15.544;2023-07-09T07:49:29;96712.16;;;25.87;42.97
72636;BME280;60679;48.888;15.544;2023-07-09T07:51:56;96711.00;;;26.01;42.58
72636;BME280;60679;48.888;15.544;2023-07-09T07:54:21;96719.31;;;26.15;42.40
72636;BME280;60679;48.888;15.544;2023-07-09T07:56:47;96716.28;;;26.25;42.46
72636;BME280;60679;48.888;15.544;2023-07-09T07:59:12;96718.34;;;26.33;41.92
72636;BME280;60679;48.888;15.544;2023-07-09T08:01:38;96705.97;;;26.39;41.73
72636;BME280;60679;48.888;15.544;2023-07-09T08:04:03;96715.38;;;26.52;41.66
72636;BME280;60679;48.888;15.544;2023-07-09T08:06:29;96711.09;;;26.68;41.18
72636;BME280;60679;48.888;15.544;2023-07-09T08:08:57;96710.94;;;26.86;41.06
72636;BME280;60679;48.888;15.544;2023-07-09T08:11:23;96713.19;;;26.84;40.69
72636;BME280;60679;48.888;15.544;2023-07-09T08:13:49;96709.50;;;26.89;40.21
72636;BME280;60679;48.888;15.544;2023-07-09T08:16:14;96711.84;;;27.04;40.26
72636;BME280;60679;48.888;15.544;2023-07-09T08:18:40;96710.91;;;27.09;39.93
72636;BME280;60679;48.888;15.544;2023-07-09T08:21:05;96712.53;;;27.10;39.82
72636;BME280;60679;48.888;15.544;2023-07-09T08:23:31;96710.63;;;27.19;39.59
72636;BME280;60679;48.888;15.544;2023-07-09T08:25:58;96709.03;;;27.26;39.29
72636;BME280;60679;48.888;15.544;2023-07-09T08:28:24;96709.81;;;27.49;38.78
72636;BME280;60679;48.888;15.544;2023-07-09T08:30:53;96710.41;;;27.77;38.60
72636;BME280;60679;48.888;15.544;2023-07-09T08:33:19;96708.31;;;27.91;38.37
72636;BME280;60679;48.888;15.544;2023-07-09T08:35:44;96706.06;;;28.10;37.91
72636;BME280;60679;48.888;15.544;2023-07-09T08:38:10;96708.22;;;28.22;37.88
72636;BME280;60679;48.888;15.544;2023-07-09T08:40:43;96704.13;;;28.19;37.63
72636;BME280;60679;48.888;15.544;2023-07-09T08:43:30;96705.28;;;28.35;37.28
72636;BME280;60679;48.888;15.544;2023-07-09T08:46:02;96706.91;;;28.45;36.86
72636;BME280;60679;48.888;15.544;2023-07-09T08:48:38;96707.91;;;28.66;36.66
72636;BME280;60679;48.888;15.544;2023-07-09T08:54:02;96699.81;;;28.99;36.17
72636;BME280;60679;48.888;15.544;2023-07-09T08:56:31;96708.13;;;29.07;36.01
72636;BME280;60679;48.888;15.544;2023-07-09T08:59:00;96708.94;;;29.16;35.85
72636;BME280;60679;48.888;15.544;2023-07-09T09:01:35;96711.06;;;29.28;35.37
72636;BME280;60679;48.888;15.544;2023-07-09T09:04:19;96707.56;;;29.48;35.02
72636;BME280;60679;48.888;15.544;2023-07-09T09:06:51;96707.56;;;29.86;34.20
72636;BME280;60679;48.888;15.544;2023-07-09T09:09:31;96704.72;;;30.45;33.93
72636;BME280;60679;48.888;15.544;2023-07-09T09:12:18;96708.38;;;31.11;33.34
72636;BME280;60679;48.888;15.544;2023-07-09T09:14:56;96707.94;;;31.66;32.54
72636;BME280;60679;48.888;15.544;2023-07-09T09:17:23;96692.13;;;32.46;31.61
72636;BME280;60679;48.888;15.544;2023-07-09T09:22:24;96702.06;;;35.74;28.42
72636;BME280;60679;48.888;15.544;2023-07-09T09:25:30;96701.31;;;38.33;25.55
72636;BME280;60679;48.888;15.544;2023-07-09T09:27:49;96701.91;;;40.52;23.34
72636;BME280;60679;48.888;15.544;2023-07-09T09:30:17;96707.31;;;41.98;21.93
72636;BME280;60679;48.888;15.544;2023-07-09T09:32:45;96705.69;;;42.86;21.41
72636;BME280;60679;48.888;15.544;2023-07-09T09:35:14;96699.88;;;44.14;20.59
72636;BME280;60679;48.888;15.544;2023-07-09T09:37:40;96703.53;;;45.04;19.58
72636;BME280;60679;48.888;15.544;2023-07-09T09:40:08;96701.75;;;46.02;19.06
72636;BME280;60679;48.888;15.544;2023-07-09T09:42:34;96706.56;;;46.85;18.35
72636;BME280;60679;48.888;15.544;2023-07-09T09:45:01;96695.84;;;47.31;17.89
72636;BME280;60679;48.888;15.544;2023-07-09T09:47:27;96690.09;;;47.85;17.19
72636;BME280;60679;48.888;15.544;2023-07-09T09:49:55;96695.09;;;48.19;17.19
72636;BME280;60679;48.888;15.544;2023-07-09T09:52:27;96693.94;;;48.41;16.64
72636;BME280;60679;48.888;15.544;2023-07-09T09:55:00;96692.16;;;49.47;15.93
72636;BME280;60679;48.888;15.544;2023-07-09T09:57:27;96695.97;;;50.05;15.58
72636;BME280;60679;48.888;15.544;2023-07-09T09:59:54;96690.72;;;50.71;15.50
72636;BME280;60679;48.888;15.544;2023-07-09T10:02:22;96685.44;;;51.24;14.97
72636;BME280;60679;48.888;15.544;2023-07-09T10:04:49;96687.94;;;51.76;14.50
72636;BME280;60679;48.888;15.544;2023-07-09T10:07:22;96686.91;;;52.30;14.24
72636;BME280;60679;48.888;15.544;2023-07-09T10:09:53;96678.06;;;52.58;13.80
72636;BME280;60679;48.888;15.544;2023-07-09T10:15:28;96679.56;;;52.53;13.56
72636;BME280;60679;48.888;15.544;2023-07-09T10:18:01;96670.03;;;52.38;13.60
72636;BME280;60679;48.888;15.544;2023-07-09T10:20:37;96668.09;;;52.82;13.17
72636;BME280;60679;48.888;15.544;2023-07-09T10:23:22;96675.41;;;53.45;12.48
72636;BME280;60679;48.888;15.544;2023-07-09T10:31:58;96666.31;;;54.31;11.92
72636;BME280;60679;48.888;15.544;2023-07-09T10:34:12;96663.53;;;54.77;11.84
72636;BME280;60679;48.888;15.544;2023-07-09T10:39:37;96653.03;;;55.20;11.66
72636;BME280;60679;48.888;15.544;2023-07-09T10:42:04;96647.41;;;55.94;10.95
72636;BME280;60679;48.888;15.544;2023-07-09T10:44:39;96651.38;;;56.81;10.63
72636;BME280;60679;48.888;15.544;2023-07-09T10:47:33;96641.44;;;57.10;10.56
72636;BME280;60679;48.888;15.544;2023-07-09T10:50:01;96651.59;;;57.81;10.19
72636;BME280;60679;48.888;15.544;2023-07-09T10:52:31;96642.34;;;57.77;10.00
72636;BME280;60679;48.888;15.544;2023-07-09T10:57:42;96644.91;;;56.60;10.45
72636;BME280;60679;48.888;15.544;2023-07-09T11:00:19;96637.47;;;56.06;10.54
72636;BME280;60679;48.888;15.544;2023-07-09T11:02:50;96633.34;;;56.23;10.37
72636;BME280;60679;48.888;15.544;2023-07-09T11:05:19;96630.88;;;56.48;10.03
72636;BME280;60679;48.888;15.544;2023-07-09T11:07:48;96635.66;;;56.51;9.88
72636;BME280;60679;48.888;15.544;2023-07-09T11:10:36;96629.81;;;57.10;9.75
72636;BME280;60679;48.888;15.544;2023-07-09T11:13:14;96630.16;;;57.67;9.39
72636;BME280;60679;48.888;15.544;2023-07-09T11:15:48;96632.41;;;59.21;8.75
72636;BME280;60679;48.888;15.544;2023-07-09T11:18:23;96623.44;;;59.89;8.67
72636;BME280;60679;48.888;15.544;2023-07-09T11:20:58;96626.22;;;59.35;8.68
72636;BME280;60679;48.888;15.544;2023-07-09T11:23:25;96632.97;;;59.19;8.63
72636;BME280;60679;48.888;15.544;2023-07-09T11:26:14;96624.16;;;59.25;8.37
72636;BME280;60679;48.888;15.544;2023-07-09T11:28:41;96628.13;;;59.27;8.39
72636;BME280;60679;48.888;15.544;2023-07-09T11:31:37;96618.53;;;58.17;8.61
72636;BME280;60679;48.888;15.544;2023-07-09T11:34:16;96624.63;;;57.58;8.65
72636;BME280;60679;48.888;15.544;2023-07-09T11:36:56;96613.75;;;58.09;8.26
72636;BME280;60679;48.888;15.544;2023-07-09T11:39:31;96608.72;;;57.37;8.47
72636;BME280;60679;48.888;15.544;2023-07-09T11:50:41;96606.75;;;60.38;7.52
72636;BME280;60679;48.888;15.544;2023-07-09T11:55:45;96598.84;;;58.46;8.12
72636;BME280;60679;48.888;15.544;2023-07-09T11:58:15;96597.66;;;59.64;7.54
72636;BME280;60679;48.888;15.544;2023-07-09T12:00:53;96596.41;;;61.36;7.08
72636;BME280;60679;48.888;15.544;2023-07-09T12:03:34;96588.09;;;62.30;6.54
72636;BME280;60679;48.888;15.544;2023-07-09T12:08:35;96581.00;;;57.64;8.72
72636;BME280;60679;48.888;15.544;2023-07-09T12:11:02;96564.25;;;54.31;9.70
72636;BME280;60679;48.888;15.544;2023-07-09T12:13:28;96551.63;;;50.47;11.83
72636;BME280;60679;48.888;15.544;2023-07-09T12:15:54;96543.72;;;46.91;13.50
72636;BME280;60679;48.888;15.544;2023-07-09T12:18:19;96548.97;;;54.50;9.49
72636;BME280;60679;48.888;15.544;2023-07-09T12:20:49;96545.06;;;52.99;10.37
72636;BME280;60679;48.888;15.544;2023-07-09T12:23:32;96556.41;;;56.39;8.36
72636;BME280;60679;48.888;15.544;2023-07-09T12:26:02;96558.63;;;60.39;6.69
72636;BME280;60679;48.888;15.544;2023-07-09T12:28:29;96568.50;;;61.80;6.57
72636;BME280;60679;48.888;15.544;2023-07-09T12:30:55;96569.03;;;61.65;6.37
72636;BME280;60679;48.888;15.544;2023-07-09T12:33:25;96553.72;;;55.25;8.90
72636;BME280;60679;48.888;15.544;2023-07-09T12:35:59;96538.31;;;58.74;7.13
72636;BME280;60679;48.888;15.544;2023-07-09T12:38:28;96550.31;;;60.68;6.72
72636;BME280;60679;48.888;15.544;2023-07-09T12:40:55;96548.06;;;60.12;6.99
72636;BME280;60679;48.888;15.544;2023-07-09T12:43:26;96558.00;;;62.43;5.84
72636;BME280;60679;48.888;15.544;2023-07-09T12:45:52;96546.94;;;62.75;5.30
72636;BME280;60679;48.888;15.544;2023-07-09T12:48:22;96553.78;;;62.64;5.63
72636;BME280;60679;48.888;15.544;2023-07-09T12:50:49;96545.56;;;63.64;5.66
72636;BME280;60679;48.888;15.544;2023-07-09T12:53:20;96542.63;;;63.10;5.58
72636;BME280;60679;48.888;15.544;2023-07-09T12:55:51;96533.41;;;62.72;5.66
72636;BME280;60679;48.888;15.544;2023-07-09T12:58:27;96538.19;;;63.29;5.10
72636;BME280;60679;48.888;15.544;2023-07-09T13:00:55;96541.59;;;64.31;4.80
72636;BME280;60679;48.888;15.544;2023-07-09T13:03:28;96532.84;;;64.39;4.72
72636;BME280;60679;48.888;15.544;2023-07-09T13:05:59;96524.09;;;63.49;5.35
72636;BME280;60679;48.888;15.544;2023-07-09T13:08:27;96517.88;;;62.38;5.53
72636;BME280;60679;48.888;15.544;2023-07-09T13:10:54;96514.84;;;62.04;5.69
72636;BME280;60679;48.888;15.544;2023-07-09T13:13:22;96502.25;;;61.51;5.18
72636;BME280;60679;48.888;15.544;2023-07-09T13:15:56;96493.06;;;60.78;5.60
72636;BME280;60679;48.888;15.544;2023-07-09T13:18:24;96503.63;;;61.63;5.55
72636;BME280;60679;48.888;15.544;2023-07-09T13:20:51;96504.81;;;62.12;5.40
72636;BME280;60679;48.888;15.544;2023-07-09T13:23:20;96477.22;;;56.39;7.27
72636;BME280;60679;48.888;15.544;2023-07-09T13:25:46;96468.78;;;48.89;10.28
72636;BME280;60679;48.888;15.544;2023-07-09T13:28:22;96471.25;;;51.45;8.56
72636;BME280;60679;48.888;15.544;2023-07-09T13:30:50;96490.25;;;56.93;6.14
72636;BME280;60679;48.888;15.544;2023-07-09T13:33:16;96471.63;;;58.65;5.66
72636;BME280;60679;48.888;15.544;2023-07-09T13:35:43;96482.72;;;60.58;5.11